createdAt,value
2023-01-07T00:02:35.491Z,67.17
2023-01-07T00:05:36.977Z,67.15
2023-01-07T00:08:41.097Z,66.85
2023-01-07T00:11:43.064Z,66.92
2023-01-07T00:14:44.524Z,66.87
2023-01-07T00:17:46.084Z,66.93
2023-01-07T00:20:47.539Z,67.19
2023-01-07T00:23:49.636Z,67.17
2023-01-07T00:26:51.152Z,67.13
2023-01-07T00:29:52.763Z,67.51
2023-01-07T00:33:04.550Z,67.08
2023-01-07T00:36:08.559Z,67.08
2023-01-07T00:39:19.331Z,66.98
2023-01-07T00:42:39.958Z,67.02
2023-01-07T00:45:41.539Z,66.89
2023-01-07T00:48:44.797Z,67.30
2023-01-07T00:51:46.435Z,67.09
2023-01-07T00:54:47.948Z,66.80
2023-01-07T00:57:49.602Z,66.84
2023-01-07T01:00:56.199Z,67.00
2023-01-07T01:03:58.862Z,67.10
2023-01-07T01:07:00.752Z,66.94
2023-01-07T01:10:05.760Z,67.10
2023-01-07T01:13:07.272Z,67.08
2023-01-07T01:16:11.630Z,67.04
2023-01-07T01:19:13.162Z,67.07
2023-01-07T01:22:14.763Z,66.94
2023-01-07T01:25:16.504Z,66.95
2023-01-07T01:28:17.975Z,66.91
2023-01-07T01:31:19.519Z,66.81
2023-01-07T01:34:24.230Z,66.86
2023-01-07T01:37:27.991Z,66.78
2023-01-07T01:40:31.221Z,66.95
2023-01-07T01:43:35.907Z,66.88
2023-01-07T01:46:44.521Z,66.97
2023-01-07T01:49:52.713Z,66.96
2023-01-07T01:53:04.939Z,66.86
2023-01-07T01:56:12.570Z,67.05
2023-01-07T01:59:17.264Z,66.87
2023-01-07T02:02:25.891Z,66.82
2023-01-07T02:05:34.381Z,66.95
2023-01-07T02:08:35.935Z,67.03
2023-01-07T02:11:55.793Z,66.99
2023-01-07T02:15:10.117Z,67.01
2023-01-07T02:18:38.436Z,67.14
2023-01-07T02:22:33.549Z,67.08
2023-01-07T02:26:06.054Z,67.00
2023-01-07T02:29:40.560Z,67.15
2023-01-07T02:32:58.429Z,67.07
2023-01-07T02:36:12.126Z,67.11
2023-01-07T02:39:54.803Z,67.11
2023-01-07T02:43:26.387Z,67.03
2023-01-07T02:46:36.732Z,67.08
2023-01-07T02:49:38.224Z,67.25
2023-01-07T02:52:40.110Z,67.24
2023-01-07T02:56:01.316Z,67.13
2023-01-07T02:59:27.830Z,66.84
2023-01-07T03:02:41.447Z,67.11
2023-01-07T03:05:55.224Z,67.02
2023-01-07T03:09:22.797Z,67.02
2023-01-07T03:12:30.001Z,67.00
2023-01-07T03:15:46.515Z,66.96
2023-01-07T03:18:55.877Z,67.04
2023-01-07T03:21:59.838Z,67.08
2023-01-07T03:25:03.576Z,67.13
2023-01-07T03:28:08.641Z,67.25
2023-01-07T03:31:15.000Z,67.09
2023-01-07T03:34:21.339Z,66.69
2023-01-07T03:37:27.619Z,67.06
2023-01-07T03:40:29.884Z,67.19
2023-01-07T03:43:31.602Z,67.04
2023-01-07T03:46:35.424Z,66.77
2023-01-07T03:49:38.565Z,66.78
2023-01-07T03:52:41.103Z,66.86
2023-01-07T03:55:42.593Z,66.92
2023-01-07T03:58:44.145Z,66.60
2023-01-07T04:01:45.826Z,66.76
2023-01-07T04:04:47.565Z,66.81
2023-01-07T04:07:49.616Z,66.87
2023-01-07T04:10:51.685Z,66.92
2023-01-07T04:13:53.213Z,66.97
2023-01-07T04:16:55.671Z,67.00
2023-01-07T04:19:57.326Z,66.86
2023-01-07T04:22:59.553Z,66.90
2023-01-07T04:26:01.054Z,67.09
2023-01-07T04:29:02.747Z,67.11
2023-01-07T04:32:05.037Z,67.22
2023-01-07T04:35:06.941Z,67.07
2023-01-07T04:38:08.587Z,66.89
2023-01-07T04:41:10.246Z,67.38
2023-01-07T04:44:11.949Z,67.07
2023-01-07T04:47:13.419Z,67.09
2023-01-07T04:50:15.369Z,67.23
2023-01-07T04:53:17.142Z,67.17
2023-01-07T04:56:19.923Z,67.23
2023-01-07T04:59:23.411Z,67.41
2023-01-07T05:02:24.969Z,67.16
2023-01-07T05:05:27.929Z,67.04
2023-01-07T05:08:30.432Z,67.07
2023-01-07T05:11:32.360Z,67.01
2023-01-07T05:14:34.445Z,67.09
2023-01-07T05:17:36.026Z,67.11
2023-01-07T05:20:40.343Z,67.07
2023-01-07T05:23:42.506Z,67.00
2023-01-07T05:26:44.089Z,67.13
2023-01-07T05:29:46.111Z,67.11
2023-01-07T05:32:47.619Z,67.17
2023-01-07T05:35:49.354Z,67.32
2023-01-07T05:38:52.525Z,67.26
2023-01-07T05:41:54.178Z,67.30
2023-01-07T05:44:58.015Z,67.04
2023-01-07T05:47:59.624Z,67.24
2023-01-07T05:51:01.178Z,67.16
2023-01-07T05:54:03.221Z,67.20
2023-01-07T05:57:04.725Z,67.26
2023-01-07T06:00:07.175Z,67.09
2023-01-07T06:03:13.442Z,67.22
2023-01-07T06:06:14.896Z,67.21
2023-01-07T06:09:16.389Z,67.12
2023-01-07T06:12:17.878Z,67.25
2023-01-07T06:15:19.382Z,67.22
2023-01-07T06:18:20.877Z,67.02
2023-01-07T06:21:22.403Z,67.09
2023-01-07T06:24:23.908Z,67.08
2023-01-07T06:27:25.421Z,67.41
2023-01-07T06:30:26.997Z,67.43
2023-01-07T06:33:28.444Z,67.70
2023-01-07T06:36:30.144Z,67.64
2023-01-07T06:39:31.671Z,67.63
2023-01-07T06:42:33.405Z,67.81
2023-01-07T06:45:35.113Z,68.04
2023-01-07T06:48:36.710Z,68.03
2023-01-07T06:51:38.156Z,67.88
2023-01-07T06:54:39.592Z,68.14
2023-01-07T06:57:41.063Z,68.13
2023-01-07T07:00:42.753Z,68.28
2023-01-07T07:03:44.198Z,68.07
2023-01-07T07:06:45.656Z,68.02
2023-01-07T07:09:47.762Z,67.88
2023-01-07T07:12:49.251Z,67.90
2023-01-07T07:15:50.772Z,67.91
2023-01-07T07:18:53.411Z,67.87
2023-01-07T07:21:54.966Z,67.75
2023-01-07T07:24:56.425Z,67.68
2023-01-07T07:27:57.886Z,67.48
2023-01-07T07:30:59.383Z,67.76
2023-01-07T07:34:00.895Z,67.20
2023-01-07T07:37:02.725Z,67.03
2023-01-07T07:40:08.985Z,66.85
2023-01-07T07:43:12.958Z,66.95
2023-01-07T07:46:14.923Z,66.92
2023-01-07T07:49:16.391Z,67.05
2023-01-07T07:52:18.504Z,66.97
2023-01-07T07:55:26.157Z,67.23
2023-01-07T07:58:28.114Z,67.43
2023-01-07T08:01:29.756Z,67.51
2023-01-07T08:04:34.104Z,67.60
2023-01-07T08:07:37.626Z,67.58
2023-01-07T08:10:40.453Z,67.43
2023-01-07T08:13:41.920Z,67.15
2023-01-07T08:16:43.381Z,68.06
2023-01-07T08:19:44.877Z,68.73
2023-01-07T08:22:46.338Z,69.08
2023-01-07T08:25:47.968Z,68.96
2023-01-07T08:28:49.482Z,68.97
2023-01-07T08:31:51.814Z,68.67
2023-01-07T08:34:53.319Z,68.50
2023-01-07T08:38:03.278Z,68.48
2023-01-07T08:41:04.893Z,68.50
2023-01-07T08:44:06.421Z,68.64
2023-01-07T08:47:07.956Z,68.55
2023-01-07T08:50:09.685Z,68.46
2023-01-07T08:53:11.173Z,68.45
2023-01-07T08:56:12.630Z,68.53
2023-01-07T08:59:14.136Z,68.19
2023-01-07T09:02:18.368Z,68.46
2023-01-07T09:05:19.996Z,68.39
2023-01-07T09:08:21.491Z,68.29
2023-01-07T09:11:23.484Z,68.24
2023-01-07T09:14:25.117Z,68.22
2023-01-07T09:17:26.611Z,68.09
2023-01-07T09:20:28.124Z,67.97
2023-01-07T09:23:29.689Z,68.11
2023-01-07T09:26:31.237Z,68.07
2023-01-07T09:29:32.754Z,68.26
2023-01-07T09:32:34.320Z,68.63
2023-01-07T09:35:35.820Z,68.56
2023-01-07T09:38:37.394Z,68.54
2023-01-07T09:41:57.465Z,68.64
2023-01-07T09:45:21.248Z,68.92
2023-01-07T09:48:44.421Z,68.87
2023-01-07T09:51:56.308Z,68.87
2023-01-07T09:55:07.625Z,68.94
2023-01-07T09:58:15.731Z,69.07
2023-01-07T10:01:26.640Z,69.15
2023-01-07T10:04:38.195Z,69.28
2023-01-07T10:08:30.438Z,69.39
2023-01-07T10:11:30.881Z,69.37
2023-01-07T10:14:35.403Z,69.11
2023-01-07T10:17:55.510Z,69.02
2023-01-07T10:21:12.447Z,68.81
2023-01-07T10:24:21.866Z,68.71
2023-01-07T10:27:32.204Z,68.63
2023-01-07T10:30:41.702Z,68.57
2023-01-07T10:33:45.803Z,68.56
2023-01-07T10:37:01.001Z,68.51
2023-01-07T10:40:37.664Z,68.50
2023-01-07T10:43:57.262Z,68.50
2023-01-07T10:47:04.715Z,68.71
2023-01-07T10:50:19.874Z,68.67
2023-01-07T10:53:42.518Z,68.74
2023-01-07T10:57:03.720Z,68.87
2023-01-07T11:00:10.700Z,69.00
2023-01-07T11:03:23.272Z,69.08
2023-01-07T11:06:52.299Z,69.09
2023-01-07T11:09:56.073Z,69.26
2023-01-07T11:13:02.563Z,69.38
2023-01-07T11:16:08.903Z,69.41
2023-01-07T11:19:12.120Z,69.55
2023-01-07T11:22:28.376Z,69.64
2023-01-07T11:25:30.809Z,69.87
2023-01-07T11:28:34.229Z,69.85
2023-01-07T11:31:55.956Z,69.75
2023-01-07T11:35:02.331Z,69.95
2023-01-07T11:38:31.152Z,69.84
2023-01-07T11:41:32.777Z,70.00
2023-01-07T11:44:34.281Z,70.10
2023-01-07T11:47:38.224Z,70.12
2023-01-07T11:50:42.954Z,70.18
2023-01-07T11:53:50.600Z,69.87
2023-01-07T11:56:54.181Z,70.24
2023-01-07T12:00:28.594Z,70.08
2023-01-07T12:03:30.497Z,70.06
2023-01-07T12:06:38.477Z,69.96
2023-01-07T12:09:42.303Z,69.83
2023-01-07T12:12:44.452Z,69.71
2023-01-07T12:15:51.892Z,69.71
2023-01-07T12:19:10.037Z,69.64
2023-01-07T12:22:26.806Z,69.42
2023-01-07T12:25:49.569Z,69.56
2023-01-07T12:29:12.373Z,69.73
2023-01-07T12:32:22.914Z,69.54
2023-01-07T12:35:27.662Z,69.50
2023-01-07T12:38:50.703Z,69.46
2023-01-07T12:42:03.567Z,69.57
2023-01-07T12:45:13.852Z,69.49
2023-01-07T12:48:41.395Z,69.49
2023-01-07T12:52:02.870Z,69.51
2023-01-07T12:55:21.835Z,69.63
2023-01-07T12:58:32.753Z,69.48
2023-01-07T13:01:39.003Z,69.49
2023-01-07T13:05:02.208Z,69.42
2023-01-07T13:08:33.484Z,69.37
2023-01-07T13:12:00.345Z,69.36
2023-01-07T13:15:05.618Z,69.26
2023-01-07T13:18:10.132Z,69.20
2023-01-07T13:21:14.082Z,69.39
2023-01-07T13:24:54.647Z,69.71
2023-01-07T13:28:01.027Z,69.98
2023-01-07T13:31:08.213Z,69.96
2023-01-07T13:34:38.178Z,70.08
2023-01-07T13:38:07.745Z,70.18
2023-01-07T13:41:27.608Z,70.20
2023-01-07T13:44:58.437Z,70.29
2023-01-07T13:48:03.186Z,70.20
2023-01-07T13:51:07.365Z,70.09
2023-01-07T13:54:11.686Z,70.24
2023-01-07T13:57:31.582Z,70.43
2023-01-07T14:01:14.230Z,70.54
2023-01-07T14:04:46.517Z,70.36
2023-01-07T14:07:51.759Z,70.53
2023-01-07T14:10:54.192Z,70.41
2023-01-07T14:14:10.082Z,70.48
2023-01-07T14:17:41.314Z,70.35
2023-01-07T14:20:48.644Z,70.33
2023-01-07T14:23:59.061Z,70.42
2023-01-07T14:27:44.836Z,70.40
2023-01-07T14:30:53.176Z,70.20
2023-01-07T14:34:04.789Z,70.22
2023-01-07T14:37:16.244Z,70.01
2023-01-07T14:40:26.784Z,70.14
2023-01-07T14:43:40.721Z,70.21
2023-01-07T14:46:45.415Z,70.11
2023-01-07T14:50:04.534Z,70.21
2023-01-07T14:53:12.049Z,70.00
2023-01-07T14:56:19.525Z,70.18
2023-01-07T14:59:39.264Z,70.04
2023-01-07T15:02:59.079Z,70.09
2023-01-07T15:06:31.313Z,69.87
2023-01-07T15:10:06.650Z,69.80
2023-01-07T15:13:33.662Z,69.56
2023-01-07T15:16:36.108Z,69.89
2023-01-07T15:19:40.030Z,69.54
2023-01-07T15:22:57.753Z,69.57
2023-01-07T15:26:31.653Z,69.41
2023-01-07T15:29:54.864Z,69.60
2023-01-07T15:33:23.621Z,69.59
2023-01-07T15:36:25.833Z,69.62
2023-01-07T15:39:31.525Z,69.67
2023-01-07T15:42:33.112Z,69.61
2023-01-07T15:45:34.642Z,69.79
2023-01-07T15:48:36.194Z,69.76
2023-01-07T15:51:47.905Z,69.37
2023-01-07T15:54:49.425Z,69.43
2023-01-07T15:57:54.753Z,69.64
2023-01-07T16:00:59.988Z,69.47
2023-01-07T16:04:03.627Z,69.50
2023-01-07T16:07:05.216Z,69.70
2023-01-07T16:10:07.249Z,69.86
2023-01-07T16:13:20.590Z,69.76
2023-01-07T16:16:22.877Z,69.77
2023-01-07T16:19:24.398Z,70.05
2023-01-07T16:22:27.706Z,70.01
2023-01-07T16:25:35.557Z,70.08
2023-01-07T16:28:41.481Z,70.23
2023-01-07T16:31:43.410Z,70.19
2023-01-07T16:34:54.304Z,70.13
2023-01-07T16:37:55.945Z,70.13
2023-01-07T16:40:57.614Z,69.94
2023-01-07T16:43:59.960Z,69.95
2023-01-07T16:47:13.929Z,69.78
2023-01-07T16:50:15.655Z,69.78
2023-01-07T16:53:22.819Z,69.70
2023-01-07T16:56:24.867Z,69.74
2023-01-07T16:59:30.333Z,69.65
2023-01-07T17:02:42.024Z,69.73
2023-01-07T17:05:57.397Z,69.70
2023-01-07T17:08:58.978Z,69.48
2023-01-07T17:12:00.521Z,69.56
2023-01-07T17:15:02.289Z,69.53
2023-01-07T17:18:16.029Z,69.72
2023-01-07T17:21:39.799Z,69.80
2023-01-07T17:24:41.224Z,70.03
2023-01-07T17:27:54.049Z,70.26
2023-01-07T17:30:55.764Z,70.52
2023-01-07T17:33:57.357Z,70.35
2023-01-07T17:36:58.864Z,70.67
2023-01-07T17:40:00.506Z,70.65
2023-01-07T17:43:20.366Z,70.96
2023-01-07T17:46:22.704Z,71.06
2023-01-07T17:49:25.070Z,71.27
2023-01-07T17:52:26.996Z,71.35
2023-01-07T17:55:30.788Z,71.44
2023-01-07T17:58:34.409Z,71.61
2023-01-07T18:01:36.130Z,71.67
2023-01-07T18:04:37.711Z,71.89
2023-01-07T18:07:39.278Z,71.93
2023-01-07T18:11:00.745Z,72.02
2023-01-07T18:14:02.630Z,72.21
2023-01-07T18:17:04.148Z,72.15
2023-01-07T18:20:06.018Z,72.21
2023-01-07T18:23:10.150Z,72.10
2023-01-07T18:26:12.842Z,72.07
2023-01-07T18:29:14.700Z,72.12
2023-01-07T18:32:16.248Z,72.23
2023-01-07T18:35:19.043Z,72.65
2023-01-07T18:38:20.629Z,72.61
2023-01-07T18:41:22.373Z,72.49
2023-01-07T18:44:23.935Z,72.62
2023-01-07T18:47:25.690Z,72.75
2023-01-07T18:50:27.462Z,72.85
2023-01-07T18:53:28.944Z,72.77
2023-01-07T18:56:30.578Z,72.73
2023-01-07T18:59:32.064Z,72.38
2023-01-07T19:02:35.036Z,72.56
2023-01-07T19:05:39.074Z,72.36
2023-01-07T19:08:40.854Z,72.38
2023-01-07T19:11:42.516Z,72.32
2023-01-07T19:14:44.010Z,72.44
2023-01-07T19:17:45.500Z,72.77
2023-01-07T19:20:46.957Z,72.71
2023-01-07T19:23:48.981Z,72.52
2023-01-07T19:26:51.394Z,72.31
2023-01-07T19:29:52.949Z,72.68
2023-01-07T19:32:54.443Z,72.48
2023-01-07T19:36:08.219Z,72.27
2023-01-07T19:39:12.930Z,72.35
2023-01-07T19:42:14.682Z,72.39
2023-01-07T19:45:16.337Z,72.44
2023-01-07T19:48:19.485Z,72.52
2023-01-07T19:51:21.085Z,72.05
2023-01-07T19:54:22.672Z,72.32
2023-01-07T19:57:24.202Z,72.32
2023-01-07T20:00:25.743Z,72.57
2023-01-07T20:03:29.698Z,72.38
2023-01-07T20:06:35.392Z,72.45
2023-01-07T20:09:36.882Z,72.52
2023-01-07T20:12:39.132Z,72.40
2023-01-07T20:15:40.646Z,72.45
2023-01-07T20:18:52.820Z,72.16
2023-01-07T20:21:54.284Z,72.08
2023-01-07T20:24:55.763Z,72.14
2023-01-07T20:27:57.276Z,72.37
2023-01-07T20:30:59.082Z,72.26
2023-01-07T20:34:00.970Z,72.41
2023-01-07T20:37:02.621Z,72.48
2023-01-07T20:40:04.751Z,72.34
2023-01-07T20:43:06.859Z,72.65
2023-01-07T20:46:08.998Z,72.76
2023-01-07T20:49:11.695Z,72.51
2023-01-07T20:52:13.196Z,72.77
2023-01-07T20:55:14.821Z,72.96
2023-01-07T20:58:16.300Z,72.76
2023-01-07T21:01:20.458Z,72.64
2023-01-07T21:04:22.084Z,72.76
2023-01-07T21:07:23.619Z,72.57
2023-01-07T21:10:25.981Z,72.66
2023-01-07T21:13:27.617Z,72.61
2023-01-07T21:16:29.272Z,72.63
2023-01-07T21:19:30.929Z,72.66
2023-01-07T21:22:32.508Z,72.59
2023-01-07T21:25:34.059Z,72.72
2023-01-07T21:28:36.460Z,72.67
2023-01-07T21:31:38.098Z,72.64
2023-01-07T21:34:39.716Z,72.51
2023-01-07T21:37:41.229Z,72.69
2023-01-07T21:40:42.690Z,72.76
2023-01-07T21:43:44.713Z,72.50
2023-01-07T21:46:46.237Z,72.38
2023-01-07T21:49:49.577Z,72.26
2023-01-07T21:52:51.089Z,72.44
2023-01-07T21:55:52.591Z,72.16
2023-01-07T21:58:54.112Z,72.46
2023-01-07T22:01:55.950Z,72.16
2023-01-07T22:04:57.581Z,72.50
2023-01-07T22:07:59.115Z,72.44
2023-01-07T22:11:00.734Z,72.40
2023-01-07T22:14:02.481Z,72.46
2023-01-07T22:17:04.223Z,72.30
2023-01-07T22:20:06.342Z,72.31
2023-01-07T22:23:11.147Z,72.19
2023-01-07T22:26:15.117Z,72.11
2023-01-07T22:29:17.401Z,72.14
2023-01-07T22:32:18.924Z,71.95
2023-01-07T22:35:20.609Z,72.12
2023-01-07T22:38:24.754Z,71.82
2023-01-07T22:41:28.407Z,71.87
2023-01-07T22:44:36.613Z,71.84
2023-01-07T22:47:42.149Z,71.92
2023-01-07T22:50:43.694Z,71.99
2023-01-07T22:53:46.398Z,71.92
2023-01-07T22:56:48.202Z,71.78
2023-01-07T22:59:49.733Z,71.92
2023-01-07T23:02:51.305Z,71.72
2023-01-07T23:05:52.995Z,71.62
2023-01-07T23:08:54.588Z,70.82
2023-01-07T23:11:59.478Z,68.89
2023-01-07T23:15:00.996Z,68.84
2023-01-07T23:18:05.173Z,69.21
2023-01-07T23:21:06.772Z,69.51
2023-01-07T23:24:08.531Z,69.71
2023-01-07T23:27:10.041Z,69.55
2023-01-07T23:30:12.004Z,69.63
2023-01-07T23:33:13.516Z,69.66
2023-01-07T23:36:15.039Z,69.70
2023-01-07T23:39:16.519Z,69.79
2023-01-07T23:42:18.113Z,70.05
2023-01-07T23:45:19.585Z,69.90
2023-01-07T23:48:21.133Z,69.89
2023-01-07T23:51:22.603Z,69.91
2023-01-07T23:54:24.226Z,69.78
2023-01-07T23:57:25.861Z,69.89
